Uniontown, Indiana
Current Conditions -  °F | °C
As of 11:15 AM on Friday 24 Oct 2014 (Local Time) from KHNB Reporting Station
Overcast Overcast  
Wind Chill: 57°   Ceiling: 3800
Heat Index: 57°   Visibility: 10mi
Dew Point: 46°   Wind: 5mph
Humidity: 67%   Direction: 220°SW
Pressure: 30.13"   Gusts: NA
Location:  38.1675°N, 86.7159°W
Report Text: KHNB 241615Z AUTO 22004KT 10SM BKN038 OVC046 14/08 A3013 RMK AO1
Loading
Personal Weather Stations






























Interactive Weather Map
Tropical Storm Tracking
New forecast layout! Learn more

10-Day Weather Forecast

Advertisements
Track Severe Weather on mobile